Time;durP1;ratioP1;P1;durP2;ratioP2;P2;SDS_P1;SDS_P2;PMS_P1;PMS_P2;Temp;Humidity;BMP_temperature;BMP_pressure;BME280_temperature;BME280_humidity;BME280_pressure;Samples;Min_cycle;Max_cycle;Signal;HPM_P1;HPM_P2
2021/07/14 00:02:13;;;;;;;17.27;11.20;;;;;;;16.84;85.63;100739.97;4911614;29;20032;-78
2021/07/14 00:04:58;;;;;;;18.17;10.52;;;;;;;16.83;84.60;100744.75;4902323;29;20059;-79
2021/07/14 00:07:45;;;;;;;18.10;11.10;;;;;;;16.80;85.28;100744.56;4917139;29;20119;-79
2021/07/14 00:10:32;;;;;;;19.17;12.30;;;;;;;16.77;85.95;100742.44;4933347;29;20048;-78
2021/07/14 00:22:14;;;;;;;19.35;11.48;;;;;;;16.75;86.59;100743.56;4927156;29;20036;-79
2021/07/14 00:25:00;;;;;;;15.48;10.70;;;;;;;16.73;85.98;100750.66;4931254;29;20436;-79
2021/07/14 00:27:49;;;;;;;18.27;11.30;;;;;;;16.66;86.87;100745.56;4931623;29;20044;-78
2021/07/14 00:30:37;;;;;;;21.65;12.85;;;;;;;16.69;87.14;100744.06;4931522;29;20070;-78
2021/07/14 00:33:24;;;;;;;24.70;12.18;;;;;;;16.71;86.93;100744.53;4937356;29;20040;-78
2021/07/14 00:36:10;;;;;;;18.23;11.07;;;;;;;16.72;86.61;100743.41;4919878;29;20512;-78
2021/07/14 00:38:56;;;;;;;22.40;10.90;;;;;;;16.73;87.07;100748.69;4930025;29;20038;-78
2021/07/14 00:41:41;;;;;;;20.58;11.52;;;;;;;16.68;86.98;100748.84;4913581;29;20043;-79
2021/07/14 00:44:27;;;;;;;18.50;10.68;;;;;;;16.71;86.54;100742.56;4926555;29;20046;-79
2021/07/14 00:47:13;;;;;;;23.85;10.27;;;;;;;16.72;86.81;100744.22;4917977;29;20043;-79
2021/07/14 00:49:59;;;;;;;25.50;11.63;;;;;;;16.72;86.71;100741.44;4911637;29;20056;-79
2021/07/14 00:52:45;;;;;;;21.30;11.75;;;;;;;16.69;87.40;100741.28;4899259;29;20099;-79
2021/07/14 00:55:31;;;;;;;17.27;11.02;;;;;;;16.65;87.25;100743.06;4919150;29;20043;-79
2021/07/14 00:58:17;;;;;;;20.52;10.18;;;;;;;16.68;87.18;100734.81;4909361;29;20035;-79
2021/07/14 01:01:03;;;;;;;19.67;11.05;;;;;;;16.67;87.24;100721.13;4907415;29;20042;-79
2021/07/14 01:04:07;;;;;;;22.63;10.43;;;;;;;16.72;86.56;100720.97;4911290;29;20109;-78
2021/07/14 01:07:01;;;;;;;17.85;10.13;;;;;;;16.74;86.26;100713.88;4923934;29;20044;-78
2021/07/14 01:09:56;;;;;;;17.48;9.50;;;;;;;16.72;86.68;100727.41;4909083;29;20044;-78
2021/07/14 01:12:56;;;;;;;17.10;9.75;;;;;;;16.74;86.24;100727.91;4920986;29;20050;-78
2021/07/14 01:15:49;;;;;;;19.30;10.10;;;;;;;16.70;87.02;100714.88;4918138;29;20050;-78
2021/07/14 01:18:42;;;;;;;16.27;9.75;;;;;;;16.69;85.90;100713.22;4906490;29;20172;-78
2021/07/14 01:21:30;;;;;;;20.52;10.52;;;;;;;16.69;86.77;100702.00;4908902;29;20512;-78
2021/07/14 01:24:56;;;;;;;16.52;9.38;;;;;;;16.69;86.83;100704.81;4907682;29;20519;-78
2021/07/14 01:27:41;;;;;;;15.27;9.13;;;;;;;16.69;86.54;100704.81;4891149;29;20051;-79
2021/07/14 01:30:27;;;;;;;11.82;8.63;;;;;;;16.69;85.80;100713.22;4905264;29;20110;-79
2021/07/14 01:33:13;;;;;;;15.60;9.45;;;;;;;16.69;86.18;100710.44;4895035;29;20051;-78
2021/07/14 01:36:01;;;;;;;16.65;8.68;;;;;;;16.67;85.19;100702.34;4897473;29;20044;-78
2021/07/14 01:38:47;;;;;;;16.48;10.15;;;;;;;16.62;86.27;100705.28;4923146;29;20058;-78
2021/07/14 01:41:34;;;;;;;20.33;9.73;;;;;;;16.61;86.02;100698.06;4894830;29;20040;-79
2021/07/14 01:44:22;;;;;;;21.45;10.68;;;;;;;16.60;86.03;100706.78;4909132;28;20047;-78
2021/07/14 01:47:08;;;;;;;18.17;10.23;;;;;;;16.54;86.73;100704.13;4907302;29;20126;-78
2021/07/14 01:49:54;;;;;;;16.38;10.75;;;;;;;16.54;86.68;100703.31;4928585;29;20044;-78
2021/07/14 01:52:40;;;;;;;17.67;11.40;;;;;;;16.51;87.55;100703.97;4906446;29;20044;-78
2021/07/14 01:55:26;;;;;;;24.73;12.43;;;;;;;16.50;88.35;100696.72;4922550;29;20140;-79
2021/07/14 01:58:12;;;;;;;17.38;11.23;;;;;;;16.47;87.64;100700.19;4897086;29;20087;-79
2021/07/14 02:00:58;;;;;;;20.15;10.18;;;;;;;16.47;87.29;100706.63;4890983;29;20044;-79
2021/07/14 02:06:49;;;;;;;20.80;10.75;;;;;;;16.50;87.14;100707.94;4934991;29;20054;-79
2021/07/14 02:09:35;;;;;;;16.00;9.00;;;;;;;16.49;86.20;100706.28;4917237;29;20028;-79
2021/07/14 02:12:29;;;;;;;17.92;10.45;;;;;;;16.48;86.76;100705.47;4908468;29;20834;-79
2021/07/14 02:15:15;;;;;;;19.52;10.27;;;;;;;16.47;86.24;100712.22;4912780;29;20051;-79
2021/07/14 02:18:09;;;;;;;20.10;9.63;;;;;;;16.48;86.14;100710.25;4921886;29;20047;-79
2021/07/14 02:20:57;;;;;;;15.25;8.48;;;;;;;16.48;85.91;100715.84;4917323;29;20043;-79
2021/07/14 02:23:43;;;;;;;18.33;10.23;;;;;;;16.46;86.92;100716.16;4902864;28;20119;-79
2021/07/14 02:26:32;;;;;;;18.80;11.45;;;;;;;16.44;87.06;100714.88;4905969;29;20040;-79
2021/07/14 02:29:18;;;;;;;18.95;9.95;;;;;;;16.44;86.99;100728.88;4901152;29;20497;-79
2021/07/14 02:32:05;;;;;;;17.35;9.73;;;;;;;16.41;86.60;100727.56;4916357;29;20066;-79
2021/07/14 02:34:53;;;;;;;17.73;10.15;;;;;;;16.39;86.90;100729.88;4906883;29;20054;-79
2021/07/14 02:37:59;;;;;;;21.48;12.13;;;;;;;16.29;89.26;100730.16;4908775;29;20036;-79
2021/07/14 02:40:48;;;;;;;17.60;10.82;;;;;;;16.29;89.19;100733.78;4914059;29;20055;-78
2021/07/14 02:43:34;;;;;;;23.25;11.18;;;;;;;16.28;89.29;100734.13;4923203;29;20396;-78
2021/07/14 02:46:23;;;;;;;26.67;11.55;;;;;;;16.23;89.71;100726.69;4909081;29;20107;-78
2021/07/14 02:49:11;;;;;;;18.60;10.73;;;;;;;16.26;89.74;100726.03;4890867;29;20473;-78
2021/07/14 02:51:56;;;;;;;22.15;11.82;;;;;;;16.27;88.76;100722.09;4922585;29;20035;-78
2021/07/14 02:54:43;;;;;;;22.70;12.35;;;;;;;16.26;89.54;100726.03;4910557;29;20099;-79
2021/07/14 02:57:30;;;;;;;19.23;11.40;;;;;;;16.21;89.94;100733.78;4907428;29;20171;-79
2021/07/14 03:00:16;;;;;;;24.33;12.50;;;;;;;16.19;90.41;100747.31;4905842;29;20031;-79
2021/07/14 03:03:01;;;;;;;25.77;12.50;;;;;;;16.18;90.69;100752.06;4907625;29;20564;-79
2021/07/14 03:05:47;;;;;;;20.27;12.35;;;;;;;16.16;91.07;100760.00;4897695;29;20043;-79
2021/07/14 03:08:33;;;;;;;24.42;13.10;;;;;;;16.15;91.37;100763.94;4891350;29;20614;-79
2021/07/14 03:11:19;;;;;;;18.42;10.98;;;;;;;16.19;90.54;100759.34;4904217;29;20655;-78
2021/07/14 03:14:05;;;;;;;22.15;11.77;;;;;;;16.18;90.42;100752.06;4894758;29;20619;-79
2021/07/14 03:16:50;;;;;;;20.80;12.30;;;;;;;16.14;91.23;100751.09;4895744;29;20505;-78
2021/07/14 03:19:36;;;;;;;22.25;12.13;;;;;;;16.14;90.59;100753.88;4898932;29;20425;-78
2021/07/14 03:22:22;;;;;;;21.33;11.50;;;;;;;16.18;90.18;100752.06;4921547;29;20035;-78
2021/07/14 03:25:09;;;;;;;24.50;11.95;;;;;;;16.19;90.25;100764.94;4893824;29;20616;-79
2021/07/14 03:27:54;;;;;;;21.75;10.43;;;;;;;16.21;89.53;100759.81;4915945;29;20099;-78
2021/07/14 03:30:40;;;;;;;22.10;12.85;;;;;;;16.17;90.94;100760.81;4907002;29;20046;-78
2021/07/14 03:33:26;;;;;;;23.17;11.55;;;;;;;16.17;90.28;100758.84;4915407;29;20492;-78
2021/07/14 03:36:12;;;;;;;20.35;10.77;;;;;;;16.22;89.88;100753.06;4909927;29;20779;-78
2021/07/14 03:38:58;;;;;;;23.65;11.43;;;;;;;16.21;90.27;100751.41;4911524;29;20035;-78
2021/07/14 03:41:44;;;;;;;20.98;12.05;;;;;;;16.18;91.00;100751.25;4916338;28;20043;-78
2021/07/14 03:44:30;;;;;;;30.92;13.40;;;;;;;16.15;90.82;100752.72;4913851;29;20063;-79
2021/07/14 03:47:16;;;;;;;23.15;11.82;;;;;;;16.17;90.42;100760.81;4891146;29;20039;-79
2021/07/14 03:50:03;;;;;;;19.83;10.85;;;;;;;16.15;90.36;100761.13;4932715;29;20054;-78
2021/07/14 03:52:49;;;;;;;23.05;11.50;;;;;;;16.16;89.75;100753.53;4904433;29;20079;-79
2021/07/14 03:55:35;;;;;;;19.98;11.27;;;;;;;16.12;90.75;100755.34;4898323;29;20043;-79
2021/07/14 03:58:21;;;;;;;24.40;12.45;;;;;;;16.11;91.05;100764.94;4932751;29;20067;-79
2021/07/14 04:01:08;;;;;;;20.33;11.70;;;;;;;16.12;90.75;100769.38;4923344;29;20513;-79
2021/07/14 04:03:54;;;;;;;18.02;10.63;;;;;;;16.11;90.68;100762.94;4910559;29;20056;-79
2021/07/14 04:06:40;;;;;;;23.00;11.15;;;;;;;16.14;90.44;100762.28;4914233;29;20036;-79
2021/07/14 04:09:26;;;;;;;21.90;11.32;;;;;;;16.13;90.39;100760.66;4907874;28;20038;-79
2021/07/14 04:12:16;;;;;;;20.92;11.23;;;;;;;16.14;90.37;100773.50;4909893;29;20511;-79
2021/07/14 04:15:02;;;;;;;19.73;11.27;;;;;;;16.12;90.85;100775.78;4908914;29;20556;-79
2021/07/14 04:17:48;;;;;;;19.75;11.45;;;;;;;16.09;91.25;100765.22;4929454;29;20048;-79
2021/07/14 04:20:34;;;;;;;26.55;12.95;;;;;;;16.08;90.98;100772.00;4904977;29;20131;-78
2021/07/14 04:23:20;;;;;;;18.55;11.05;;;;;;;16.09;90.67;100782.88;4892954;29;20072;-79
2021/07/14 04:26:06;;;;;;;21.63;11.45;;;;;;;16.11;91.05;100782.56;4908351;29;20551;-79
2021/07/14 04:28:53;;;;;;;23.23;11.20;;;;;;;16.07;91.59;100776.78;4906757;29;20039;-78
2021/07/14 04:31:40;;;;;;;21.08;12.50;;;;;;;16.07;91.91;100784.34;4902861;29;20042;-78
2021/07/14 04:34:26;;;;;;;24.45;12.98;;;;;;;16.06;92.06;100785.50;4897788;29;20460;-78
2021/07/14 04:37:12;;;;;;;19.90;11.77;;;;;;;16.04;91.98;100790.59;4906511;29;20134;-79
2021/07/14 04:39:58;;;;;;;24.33;12.48;;;;;;;16.04;92.06;100790.59;4911566;29;20040;-79
2021/07/14 04:42:44;;;;;;;22.50;12.57;;;;;;;16.03;92.65;100786.97;4891630;29;20032;-79
2021/07/14 04:45:30;;;;;;;22.90;12.45;;;;;;;16.03;92.22;100786.97;4907590;29;20040;-79
2021/07/14 04:48:15;;;;;;;18.42;12.15;;;;;;;16.04;92.15;100785.00;4906207;29;20138;-78
2021/07/14 04:51:01;;;;;;;21.45;12.27;;;;;;;16.05;91.95;100786.66;4908312;29;20269;-79
2021/07/14 04:53:47;;;;;;;23.05;12.70;;;;;;;16.05;92.48;100784.69;4912883;29;20134;-79
2021/07/14 04:56:34;;;;;;;20.13;11.50;;;;;;;16.07;91.74;100792.75;4911922;29;20098;-79
2021/07/14 04:59:20;;;;;;;26.40;13.77;;;;;;;16.05;92.66;100781.06;4888141;29;20126;-79
2021/07/14 05:02:06;;;;;;;26.85;12.10;;;;;;;16.08;91.92;100774.81;4891358;29;20516;-79
2021/07/14 05:04:52;;;;;;;19.75;12.50;;;;;;;16.11;91.92;100781.72;4937174;29;20051;-79
2021/07/14 05:07:37;;;;;;;19.88;11.73;;;;;;;16.10;91.99;100778.09;4928993;29;20050;-78
2021/07/14 05:10:28;;;;;;;20.23;11.30;;;;;;;16.13;91.72;100783.06;4926376;29;20058;-79
2021/07/14 05:13:16;;;;;;;20.48;11.73;;;;;;;16.15;91.42;100786.34;4921463;29;20080;-78
2021/07/14 05:16:02;;;;;;;21.40;11.75;;;;;;;16.17;91.13;100786.03;4922104;29;20628;-79
2021/07/14 05:18:48;;;;;;;20.88;11.18;;;;;;;16.18;91.00;100798.88;4896191;29;20437;-79
2021/07/14 05:21:33;;;;;;;19.52;11.63;;;;;;;16.22;90.79;100803.53;4893951;29;20115;-79
2021/07/14 05:24:19;;;;;;;18.10;10.32;;;;;;;16.25;90.19;100802.03;4908031;29;20039;-79
2021/07/14 05:27:05;;;;;;;17.00;11.05;;;;;;;16.24;91.00;100806.84;4914884;29;20040;-78
2021/07/14 05:29:51;;;;;;;24.52;12.65;;;;;;;16.24;90.90;100803.19;4928752;29;20035;-78
2021/07/14 05:32:37;;;;;;;19.67;11.85;;;;;;;16.25;90.86;100802.88;4917770;29;20039;-78
2021/07/14 05:35:23;;;;;;;19.73;11.00;;;;;;;16.25;90.58;100802.03;4906045;29;20047;-78
2021/07/14 05:38:09;;;;;;;17.90;11.02;;;;;;;16.27;90.50;100800.56;4902513;29;20043;-79
2021/07/14 05:40:56;;;;;;;17.75;9.80;;;;;;;16.30;90.69;100807.50;4913078;29;20500;-78
2021/07/14 05:43:41;;;;;;;20.27;10.88;;;;;;;16.30;90.38;100799.91;4918230;29;20054;-79
2021/07/14 05:46:27;;;;;;;19.60;11.52;;;;;;;16.31;90.89;100801.56;4932520;29;20040;-78
2021/07/14 05:49:13;;;;;;;18.30;9.98;;;;;;;16.33;90.09;100809.66;4903552;29;20535;-78
2021/07/14 05:51:59;;;;;;;17.45;11.50;;;;;;;16.34;90.55;100799.25;4921578;29;20091;-78
2021/07/14 05:54:45;;;;;;;22.45;11.00;;;;;;;16.36;90.25;100805.38;4889455;29;20108;-78
2021/07/14 05:57:30;;;;;;;19.08;10.93;;;;;;;16.36;90.54;100799.78;4903762;28;20055;-78
2021/07/14 06:00:16;;;;;;;21.23;11.13;;;;;;;16.37;90.09;100804.22;4890087;29;20044;-79
2021/07/14 06:03:02;;;;;;;19.50;10.65;;;;;;;16.42;90.03;100806.88;4915885;29;20040;-78
2021/07/14 06:05:48;;;;;;;20.85;9.93;;;;;;;16.46;89.93;100805.06;4903342;29;20036;-78
2021/07/14 06:08:34;;;;;;;19.95;10.93;;;;;;;16.47;89.81;100807.53;4887873;29;20028;-78
2021/07/14 06:11:20;;;;;;;20.33;9.68;;;;;;;16.57;89.62;100811.19;4916848;29;20098;-78
2021/07/14 06:14:05;;;;;;;19.08;10.35;;;;;;;16.62;89.07;100806.25;4927660;29;20071;-78
2021/07/14 06:16:52;;;;;;;18.17;9.10;;;;;;;16.72;89.26;100805.09;4904362;29;20043;-79
2021/07/14 06:19:37;;;;;;;12.77;8.68;;;;;;;16.80;88.53;100806.28;4902805;29;20047;-78
2021/07/14 06:22:24;;;;;;;15.52;9.35;;;;;;;16.88;88.20;100808.25;4893795;29;20051;-78
2021/07/14 06:25:12;;;;;;;13.77;8.43;;;;;;;16.95;88.27;100803.00;4895425;29;20046;-78
2021/07/14 06:28:00;;;;;;;16.48;8.73;;;;;;;16.98;87.74;100811.56;4885071;29;20068;-78
2021/07/14 06:30:46;;;;;;;20.83;9.50;;;;;;;17.05;87.25;100811.09;4896258;29;20044;-78
2021/07/14 06:33:34;;;;;;;13.05;8.27;;;;;;;17.09;86.80;100819.66;4909919;29;20046;-78
2021/07/14 06:36:20;;;;;;;17.88;9.63;;;;;;;17.07;86.88;100808.75;4939100;28;20063;-78
2021/07/14 06:39:06;;;;;;;13.55;8.25;;;;;;;17.16;86.43;100825.59;4908166;29;20649;-77
2021/07/14 06:41:53;;;;;;;16.10;9.02;;;;;;;17.20;86.11;100830.22;4912211;29;20629;-78
2021/07/14 06:44:39;;;;;;;16.23;8.38;;;;;;;17.24;86.03;100832.38;4934593;29;20110;-71
2021/07/14 06:47:25;;;;;;;17.20;8.48;;;;;;;17.28;85.88;100834.19;4934333;29;20039;-70
2021/07/14 06:50:12;;;;;;;13.77;7.95;;;;;;;17.34;85.53;100832.84;4928087;29;20110;-71
2021/07/14 06:53:01;;;;;;;15.02;7.95;;;;;;;17.38;85.32;100844.22;4907489;29;20036;-71
2021/07/14 06:55:46;;;;;;;13.02;8.57;;;;;;;17.35;85.03;100845.72;4915077;29;20039;-70
2021/07/14 06:58:36;;;;;;;14.20;8.32;;;;;;;17.40;84.86;100848.38;4910240;29;20407;-71
2021/07/14 07:01:22;;;;;;;14.50;7.97;;;;;;;17.41;84.87;100854.78;4916164;29;20044;-71
2021/07/14 07:04:07;;;;;;;13.77;8.02;;;;;;;17.43;84.92;100858.09;4915456;29;20107;-70
2021/07/14 07:06:53;;;;;;;12.13;7.53;;;;;;;17.42;84.69;100859.28;4887809;29;20039;-71
2021/07/14 07:09:44;;;;;;;13.88;8.10;;;;;;;17.43;84.85;100860.91;4903422;29;20522;-79
2021/07/14 07:12:30;;;;;;;14.32;7.60;;;;;;;17.48;84.65;100855.13;4910671;29;20055;-78
2021/07/14 07:15:18;;;;;;;15.05;8.02;;;;;;;17.53;84.25;100863.38;4920562;29;20498;-78
2021/07/14 07:18:04;;;;;;;13.35;8.10;;;;;;;17.59;84.29;100873.28;4936835;29;20075;-79
2021/07/14 07:20:50;;;;;;;12.77;7.65;;;;;;;17.62;84.24;100869.81;4906846;29;20050;-78
2021/07/14 07:23:36;;;;;;;11.05;7.03;;;;;;;17.70;83.99;100875.75;4895881;29;20087;-78
2021/07/14 07:26:22;;;;;;;11.88;7.53;;;;;;;17.74;83.75;100879.53;4886925;29;20538;-78
2021/07/14 07:29:08;;;;;;;13.50;6.97;;;;;;;17.77;83.54;100887.28;4911338;29;20031;-78
2021/07/14 07:31:53;;;;;;;11.68;7.22;;;;;;;17.79;83.46;100885.00;4933353;29;20036;-78
2021/07/14 07:34:39;;;;;;;10.73;7.43;;;;;;;17.84;83.39;100898.88;4903276;29;20126;-78
2021/07/14 07:37:25;;;;;;;10.73;7.20;;;;;;;17.81;83.44;100893.94;4914985;29;20111;-78
2021/07/14 07:40:12;;;;;;;17.60;8.43;;;;;;;17.80;83.03;100890.31;4903524;29;20063;-79
2021/07/14 07:42:57;;;;;;;11.88;7.45;;;;;;;17.81;83.10;100891.13;4903260;29;20513;-80
2021/07/14 07:45:43;;;;;;;15.40;7.55;;;;;;;17.84;82.75;100894.09;4902074;29;20050;-79
2021/07/14 07:48:29;;;;;;;10.73;7.53;;;;;;;17.86;82.83;100888.97;4897203;29;20043;-79
2021/07/14 07:51:15;;;;;;;12.40;7.72;;;;;;;17.89;82.75;100893.09;4922196;29;20032;-80
2021/07/14 07:54:03;;;;;;;10.02;7.63;;;;;;;17.93;82.63;100888.44;4894434;29;20044;-79
2021/07/14 07:56:49;;;;;;;14.13;7.53;;;;;;;17.94;82.59;100894.88;4889113;29;20040;-80
2021/07/14 07:59:35;;;;;;;13.38;8.50;;;;;;;17.97;82.31;100892.25;4901889;29;20033;-78
2021/07/14 08:02:21;;;;;;;12.82;8.02;;;;;;;17.96;82.25;100893.38;4917788;29;20043;-78
2021/07/14 08:05:08;;;;;;;10.98;7.07;;;;;;;18.02;82.00;100894.84;4925745;29;20508;-78
2021/07/14 08:07:53;;;;;;;10.80;7.18;;;;;;;18.06;81.79;100893.03;4899923;29;20110;-78
2021/07/14 08:10:39;;;;;;;14.65;7.82;;;;;;;18.08;81.79;100906.78;4904144;29;20074;-78
2021/07/14 08:13:25;;;;;;;11.18;7.78;;;;;;;18.15;81.63;100897.81;4913685;29;20075;-77
2021/07/14 08:16:11;;;;;;;10.82;7.07;;;;;;;18.18;81.51;100895.16;4917791;29;20040;-74
2021/07/14 08:18:57;;;;;;;11.82;7.80;;;;;;;18.23;81.38;100897.78;4931579;29;20130;-69
2021/07/14 08:21:43;;;;;;;11.65;7.28;;;;;;;18.30;81.16;100902.88;4915038;29;20098;-70
2021/07/14 08:24:28;;;;;;;11.25;7.50;;;;;;;18.37;81.07;100908.81;4923580;29;20040;-70
2021/07/14 08:27:14;;;;;;;12.27;7.20;;;;;;;18.43;80.69;100899.00;4914091;29;20581;-70
2021/07/14 08:30:00;;;;;;;11.75;7.28;;;;;;;18.54;80.44;100902.28;4911663;29;20543;-70
2021/07/14 08:32:46;;;;;;;14.23;7.15;;;;;;;18.63;80.27;100900.22;4902362;29;20035;-69
2021/07/14 08:35:31;;;;;;;13.88;7.18;;;;;;;18.73;79.89;100904.66;4902902;29;20040;-70
2021/07/14 08:38:17;;;;;;;9.98;6.68;;;;;;;18.83;79.79;100893.03;4897190;29;20048;-70
2021/07/14 08:41:04;;;;;;;12.18;7.30;;;;;;;18.96;79.32;100891.94;4904866;29;20032;-70
2021/07/14 08:43:50;;;;;;;9.98;6.85;;;;;;;19.06;79.17;100885.09;4905100;29;20102;-70
2021/07/14 08:46:36;;;;;;;10.85;7.03;;;;;;;19.17;78.55;100882.72;4909127;29;20040;-69
2021/07/14 08:49:22;;;;;;;12.98;6.65;;;;;;;19.27;78.37;100885.09;4910653;29;20058;-77
2021/07/14 08:52:07;;;;;;;18.10;7.00;;;;;;;19.39;78.39;100887.16;4922592;29;20044;-77
2021/07/14 08:54:53;;;;;;;13.80;7.10;;;;;;;19.50;77.97;100890.34;4916846;29;20057;-70
2021/07/14 08:57:39;;;;;;;12.50;6.65;;;;;;;19.61;77.56;100891.59;4922533;29;20047;-70
2021/07/14 09:00:26;;;;;;;12.55;6.43;;;;;;;19.73;77.04;100897.31;4918496;29;20111;-70
2021/07/14 09:03:11;;;;;;;11.55;6.38;;;;;;;19.84;76.56;100895.72;4908758;29;20032;-70
2021/07/14 09:05:57;;;;;;;8.73;6.78;;;;;;;19.95;76.32;100898.09;4912932;29;20039;-71
2021/07/14 09:08:43;;;;;;;9.90;6.28;;;;;;;20.03;75.99;100903.63;4912886;29;20063;-70
2021/07/14 09:11:29;;;;;;;9.98;6.55;;;;;;;20.12;75.37;100900.72;4907014;29;20032;-70
2021/07/14 09:14:36;;;;;;;12.23;6.47;;;;;;;20.19;75.11;100906.56;4913122;29;20110;-70
2021/07/14 09:17:25;;;;;;;10.50;6.95;;;;;;;20.22;74.88;100900.25;4904103;29;20044;-70
2021/07/14 09:20:36;;;;;;;10.55;6.55;;;;;;;20.26;74.53;100906.84;4908199;29;20052;-70
2021/07/14 09:23:23;;;;;;;9.98;7.20;;;;;;;20.29;74.51;100900.50;4916448;29;20036;-70
2021/07/14 09:26:11;;;;;;;8.63;6.82;;;;;;;20.30;74.42;100899.31;4894315;29;20039;-70
2021/07/14 09:29:04;;;;;;;8.77;6.78;;;;;;;20.35;74.44;100894.63;4910711;29;20035;-70
2021/07/14 09:31:49;;;;;;;8.93;6.50;;;;;;;20.38;74.38;100889.09;4907562;29;20040;-70
2021/07/14 09:34:35;;;;;;;8.85;6.43;;;;;;;20.41;73.88;100888.41;4897335;29;20039;-70
2021/07/14 09:37:21;;;;;;;10.20;6.57;;;;;;;20.46;73.91;100890.16;4888355;29;20040;-70
2021/07/14 09:40:16;;;;;;;9.70;6.50;;;;;;;20.49;73.94;100895.91;4913024;29;20046;-70
2021/07/14 09:43:12;;;;;;;10.38;6.78;;;;;;;20.55;73.70;100892.91;4920725;29;20424;-70
2021/07/14 09:46:03;;;;;;;11.18;6.47;;;;;;;20.54;73.75;100906.19;4929028;29;20776;-70
2021/07/14 09:48:51;;;;;;;11.52;6.50;;;;;;;20.62;73.27;100910.91;4920900;29;20052;-70
2021/07/14 09:51:36;;;;;;;9.43;5.93;;;;;;;20.67;73.31;100907.84;4922142;29;20042;-70
2021/07/14 09:54:26;;;;;;;10.02;6.28;;;;;;;20.68;73.23;100909.47;4900811;29;20054;-71
2021/07/14 09:57:12;;;;;;;8.98;6.15;;;;;;;20.75;73.25;100911.69;4916420;29;20080;-70
2021/07/14 09:59:57;;;;;;;9.68;6.30;;;;;;;20.80;73.08;100908.66;4934391;29;20059;-70
2021/07/14 10:02:55;;;;;;;7.07;5.65;;;;;;;20.86;73.13;100926.16;4906415;29;20121;-70
2021/07/14 10:05:40;;;;;;;8.48;6.15;;;;;;;20.88;72.96;100919.00;4893021;29;20047;-70
2021/07/14 10:08:27;;;;;;;8.18;5.85;;;;;;;20.92;72.78;100919.09;4905709;29;20249;-70
2021/07/14 10:11:15;;;;;;;9.43;6.45;;;;;;;20.93;72.77;100918.75;4895311;29;20053;-70
2021/07/14 10:14:06;;;;;;;7.75;6.07;;;;;;;20.95;72.66;100921.25;4925117;29;21863;-70
2021/07/14 10:16:52;;;;;;;8.23;5.82;;;;;;;20.94;72.50;100911.91;4922501;29;20039;-70
2021/07/14 10:19:37;;;;;;;13.77;6.20;;;;;;;20.97;72.48;100904.75;4929134;29;20044;-70
2021/07/14 10:22:23;;;;;;;7.68;5.65;;;;;;;21.01;72.39;100902.06;4915793;29;20205;-70
2021/07/14 10:25:10;;;;;;;8.70;5.95;;;;;;;21.05;72.21;100908.63;4890448;29;20590;-70
2021/07/14 10:27:57;;;;;;;9.23;6.05;;;;;;;21.07;72.33;100904.25;4893845;29;20043;-70
2021/07/14 10:30:43;;;;;;;9.63;6.07;;;;;;;21.12;72.52;100909.69;4900986;29;20048;-70
2021/07/14 10:33:28;;;;;;;10.50;5.80;;;;;;;21.15;72.26;100906.13;4909039;29;20042;-70
2021/07/14 10:36:14;;;;;;;7.00;5.90;;;;;;;21.23;72.00;100903.50;4920904;29;20036;-70
2021/07/14 10:39:02;;;;;;;9.05;6.18;;;;;;;21.24;71.86;100908.81;4888494;29;20039;-71
2021/07/14 10:41:48;;;;;;;9.88;6.32;;;;;;;21.28;71.76;100917.38;4904004;29;20028;-68
2021/07/14 10:44:34;;;;;;;10.90;6.22;;;;;;;21.33;71.59;100920.78;4901562;29;20042;-69
2021/07/14 10:47:19;;;;;;;8.15;6.13;;;;;;;21.38;71.60;100914.94;4910740;29;20493;-68
2021/07/14 10:50:09;;;;;;;10.40;6.60;;;;;;;21.46;71.43;100915.97;4913923;29;20044;-69
2021/07/14 10:52:55;;;;;;;12.35;6.03;;;;;;;21.52;71.29;100920.19;4925273;29;20076;-69
2021/07/14 10:55:41;;;;;;;6.72;5.78;;;;;;;21.59;71.31;100920.41;4905361;29;20542;-70
2021/07/14 10:58:28;;;;;;;9.00;6.63;;;;;;;21.70;70.95;100920.69;4921579;28;20520;-69
2021/07/14 11:01:46;;;;;;;8.05;6.55;;;;;;;21.85;70.65;100921.94;4896733;29;20048;-69
2021/07/14 11:04:32;;;;;;;9.88;6.47;;;;;;;21.96;70.15;100927.91;4904399;29;20039;-69
2021/07/14 11:07:18;;;;;;;7.55;6.28;;;;;;;22.05;69.97;100926.53;4914451;29;20127;-68
2021/07/14 11:10:31;;;;;;;11.73;8.02;;;;;;;22.13;69.49;100927.56;4905489;29;20035;-71
2021/07/14 11:13:28;;;;;;;12.30;7.50;;;;;;;22.20;69.56;100924.13;4923947;29;20044;-68
2021/07/14 11:16:30;;;;;;;11.38;7.88;;;;;;;22.25;69.40;100918.19;4890015;29;20270;-69
2021/07/14 11:19:17;;;;;;;9.20;7.30;;;;;;;22.28;69.19;100912.63;4902917;29;20075;-69
2021/07/14 11:22:03;;;;;;;8.43;6.80;;;;;;;22.33;68.99;100917.19;4919161;29;20039;-68
2021/07/14 11:24:52;;;;;;;11.02;7.53;;;;;;;22.39;69.04;100917.75;4920072;29;20076;-68
2021/07/14 11:27:38;;;;;;;12.05;7.30;;;;;;;22.46;68.97;100913.09;4916193;29;20047;-69
2021/07/14 11:30:25;;;;;;;7.43;6.18;;;;;;;22.55;69.17;100920.59;4929487;29;20043;-68
2021/07/14 11:33:35;;;;;;;7.32;5.95;;;;;;;22.63;68.78;100936.56;4929516;29;20048;-69
2021/07/14 11:36:38;;;;;;;11.80;6.63;;;;;;;22.76;68.49;100938.09;4901184;29;20123;-72
2021/07/14 11:39:28;;;;;;;8.77;5.85;;;;;;;22.83;68.11;100926.94;4916129;29;20055;-68
2021/07/14 11:42:16;;;;;;;8.82;6.28;;;;;;;22.92;67.98;100916.22;4904106;29;20492;-69
2021/07/14 11:45:08;;;;;;;9.07;6.18;;;;;;;22.97;67.56;100913.16;4902698;29;20044;-70
2021/07/14 11:48:01;;;;;;;9.10;6.47;;;;;;;23.11;67.74;100915.50;4905742;29;20041;-69
2021/07/14 11:50:54;;;;;;;;;;;;;;;23.28;67.27;100927.59;4920077;29;20128;-69
2021/07/14 11:53:45;;;;;;;7.40;6.03;;;;;;;23.49;66.89;100930.09;4913321;29;20453;-69
2021/07/14 11:56:38;;;;;;;7.78;6.03;;;;;;;23.63;66.39;100931.22;4914131;29;20040;-69
2021/07/14 11:59:28;;;;;;;7.65;5.65;;;;;;;23.74;66.14;100928.63;4922877;28;20043;-69
2021/07/14 12:02:18;;;;;;;8.20;5.38;;;;;;;23.83;64.89;100922.72;4918293;29;20095;-69
2021/07/14 12:05:09;;;;;;;8.88;5.15;;;;;;;23.91;63.83;100929.38;4906068;29;20039;-69
2021/07/14 12:08:10;;;;;;;6.82;4.47;;;;;;;23.96;64.66;100927.06;4910244;29;20039;-69
2021/07/14 12:10:56;;;;;;;8.15;5.10;;;;;;;23.96;64.67;100937.56;4898866;29;20039;-69
2021/07/14 12:13:42;;;;;;;6.75;4.50;;;;;;;24.00;64.56;100938.47;4912894;29;20035;-69
2021/07/14 12:16:28;;;;;;;6.68;4.45;;;;;;;24.00;64.26;100941.28;4910008;29;20035;-69
2021/07/14 12:19:30;;;;;;;6.07;4.00;;;;;;;24.01;64.14;100940.09;4911811;29;20488;-69
2021/07/14 12:22:19;;;;;;;8.60;4.60;;;;;;;23.99;64.54;100936.81;4929415;29;20040;-69
2021/07/14 12:25:12;;;;;;;7.43;4.70;;;;;;;23.98;63.88;100935.16;4908683;29;20385;-69
2021/07/14 12:27:58;;;;;;;6.28;4.13;;;;;;;23.98;64.09;100935.97;4902134;29;20505;-69
2021/07/14 12:30:46;;;;;;;7.93;4.80;;;;;;;24.01;64.18;100934.41;4904296;29;20496;-70
2021/07/14 12:33:31;;;;;;;6.22;4.13;;;;;;;24.02;63.78;100936.88;4914291;29;20050;-70
2021/07/14 12:36:18;;;;;;;7.85;4.38;;;;;;;24.03;62.70;100937.69;4922042;29;20040;-69
2021/07/14 12:39:03;;;;;;;5.88;3.88;;;;;;;24.02;62.78;100933.25;4903795;29;20042;-80
2021/07/14 12:41:51;;;;;;;4.93;3.88;;;;;;;24.07;63.37;100938.56;4897580;29;20039;-79
2021/07/14 12:44:38;;;;;;;4.80;3.80;;;;;;;24.15;63.18;100934.69;4903948;29;20027;-80
2021/07/14 12:47:23;;;;;;;5.68;3.92;;;;;;;24.31;62.04;100928.91;4909815;29;20122;-80
2021/07/14 12:50:09;;;;;;;4.45;3.85;;;;;;;24.44;62.33;100938.09;4910467;29;20035;-80
2021/07/14 12:52:59;;;;;;;8.27;3.90;;;;;;;24.57;62.45;100941.53;4904432;29;20493;-79
2021/07/14 12:55:45;;;;;;;6.43;3.70;;;;;;;24.76;61.41;100927.25;4917521;28;20044;-80
2021/07/14 12:58:32;;;;;;;7.45;3.60;;;;;;;24.98;60.78;100922.75;4915200;29;20427;-79
2021/07/14 13:01:18;;;;;;;4.43;3.83;;;;;;;25.01;59.57;100932.53;4907310;29;20110;-79
2021/07/14 13:04:04;;;;;;;8.13;3.60;;;;;;;25.13;60.16;100935.13;4907616;29;20035;-79